sensor_id;sensor_type;location;lat;lon;timestamp;pressure;altitude;pressure_sealevel;temperature;humidity
62942;BME280;49042;47.318;19.874;2023-03-05T00:02:47;100169.00;;;-0.22;79.19
62942;BME280;49042;47.318;19.874;2023-03-05T00:05:55;100166.81;;;-0.77;82.55
62942;BME280;49042;47.318;19.874;2023-03-05T00:08:57;100160.72;;;-0.79;82.98
62942;BME280;49042;47.318;19.874;2023-03-05T00:11:59;100161.72;;;-0.89;83.38
62942;BME280;49042;47.318;19.874;2023-03-05T00:15:00;100160.28;;;-0.85;83.88
62942;BME280;49042;47.318;19.874;2023-03-05T00:18:02;100154.03;;;-0.77;83.24
62942;BME280;49042;47.318;19.874;2023-03-05T00:21:14;100158.72;;;-0.83;83.40
62942;BME280;49042;47.318;19.874;2023-03-05T00:24:17;100161.50;;;-0.80;83.53
62942;BME280;49042;47.318;19.874;2023-03-05T00:27:19;100165.50;;;-0.84;83.53
62942;BME280;49042;47.318;19.874;2023-03-05T00:30:21;100175.97;;;-0.81;83.49
62942;BME280;49042;47.318;19.874;2023-03-05T00:33:22;100166.81;;;-0.77;83.30
62942;BME280;49042;47.318;19.874;2023-03-05T00:36:24;100165.06;;;-0.78;83.10
62942;BME280;49042;47.318;19.874;2023-03-05T00:39:26;100168.06;;;-0.96;83.24
62942;BME280;49042;47.318;19.874;2023-03-05T00:42:27;100169.84;;;-1.07;83.30
62942;BME280;49042;47.318;19.874;2023-03-05T00:45:29;100165.03;;;-1.14;84.07
62942;BME280;49042;47.318;19.874;2023-03-05T00:48:31;100165.25;;;-1.11;83.79
62942;BME280;49042;47.318;19.874;2023-03-05T00:51:33;100169.91;;;-1.30;84.44
62942;BME280;49042;47.318;19.874;2023-03-05T00:54:35;100168.91;;;-1.20;84.72
62942;BME280;49042;47.318;19.874;2023-03-05T00:57:36;100164.16;;;-0.67;82.40
62942;BME280;49042;47.318;19.874;2023-03-05T01:00:38;100163.03;;;-0.94;81.99
62942;BME280;49042;47.318;19.874;2023-03-05T01:03:40;100164.88;;;-1.40;84.91
62942;BME280;49042;47.318;19.874;2023-03-05T01:06:42;100173.06;;;-1.56;86.21
62942;BME280;49042;47.318;19.874;2023-03-05T01:09:46;100167.06;;;-1.57;86.85
62942;BME280;49042;47.318;19.874;2023-03-05T01:12:48;100165.38;;;-1.10;84.46
62942;BME280;49042;47.318;19.874;2023-03-05T01:15:50;100168.81;;;-0.49;81.47
62942;BME280;49042;47.318;19.874;2023-03-05T01:18:52;100172.19;;;-0.62;81.15
62942;BME280;49042;47.318;19.874;2023-03-05T01:21:53;100160.91;;;-1.12;84.00
62942;BME280;49042;47.318;19.874;2023-03-05T01:24:55;100167.03;;;-1.22;85.85
62942;BME280;49042;47.318;19.874;2023-03-05T01:27:57;100170.56;;;-1.32;86.56
62942;BME280;49042;47.318;19.874;2023-03-05T01:30:59;100169.72;;;-1.21;86.40
62942;BME280;49042;47.318;19.874;2023-03-05T01:34:01;100167.62;;;-0.78;85.11
62942;BME280;49042;47.318;19.874;2023-03-05T01:37:02;100169.37;;;-0.41;82.35
62942;BME280;49042;47.318;19.874;2023-03-05T01:40:05;100166.59;;;-0.56;82.99
62942;BME280;49042;47.318;19.874;2023-03-05T01:43:27;100168.41;;;-0.79;84.93
62942;BME280;49042;47.318;19.874;2023-03-05T01:46:35;100163.56;;;-0.26;82.93
62942;BME280;49042;47.318;19.874;2023-03-05T01:49:39;100165.16;;;-0.52;83.02
62942;BME280;49042;47.318;19.874;2023-03-05T01:52:52;100169.72;;;-0.72;84.82
62942;BME280;49042;47.318;19.874;2023-03-05T01:55:55;100172.28;;;-0.48;83.42
62942;BME280;49042;47.318;19.874;2023-03-05T01:58:58;100171.72;;;-0.44;83.30
62942;BME280;49042;47.318;19.874;2023-03-05T02:02:04;100165.63;;;-0.08;81.21
62942;BME280;49042;47.318;19.874;2023-03-05T02:05:31;100171.16;;;-0.40;82.48
62942;BME280;49042;47.318;19.874;2023-03-05T02:08:33;100170.16;;;-0.66;84.40
62942;BME280;49042;47.318;19.874;2023-03-05T02:11:35;100163.59;;;-0.50;84.05
62942;BME280;49042;47.318;19.874;2023-03-05T02:14:37;100162.37;;;-0.44;84.73
62942;BME280;49042;47.318;19.874;2023-03-05T02:17:41;100161.94;;;-0.50;85.27
62942;BME280;49042;47.318;19.874;2023-03-05T02:23:51;100153.16;;;-0.90;87.46
62942;BME280;49042;47.318;19.874;2023-03-05T02:26:53;100155.25;;;-0.96;88.17
62942;BME280;49042;47.318;19.874;2023-03-05T02:29:54;100159.16;;;-0.89;88.27
62942;BME280;49042;47.318;19.874;2023-03-05T02:32:56;100157.25;;;-0.92;88.18
62942;BME280;49042;47.318;19.874;2023-03-05T02:35:58;100159.16;;;-0.89;88.68
62942;BME280;49042;47.318;19.874;2023-03-05T02:39:00;100149.78;;;-0.77;87.67
62942;BME280;49042;47.318;19.874;2023-03-05T02:42:02;100159.84;;;-0.68;87.64
62942;BME280;49042;47.318;19.874;2023-03-05T02:45:04;100155.00;;;-0.63;87.70
62942;BME280;49042;47.318;19.874;2023-03-05T02:48:06;100152.81;;;-0.82;87.79
62942;BME280;49042;47.318;19.874;2023-03-05T02:51:09;100160.47;;;-0.94;87.56
62942;BME280;49042;47.318;19.874;2023-03-05T02:54:11;100156.75;;;-1.46;89.27
62942;BME280;49042;47.318;19.874;2023-03-05T02:57:12;100151.81;;;-1.55;90.23
62942;BME280;49042;47.318;19.874;2023-03-05T03:00:15;100149.91;;;-1.70;90.44
62942;BME280;49042;47.318;19.874;2023-03-05T03:03:16;100148.09;;;-1.71;90.81
62942;BME280;49042;47.318;19.874;2023-03-05T03:06:18;100146.22;;;-1.62;90.95
62942;BME280;49042;47.318;19.874;2023-03-05T03:09:20;100151.72;;;-1.57;91.50
62942;BME280;49042;47.318;19.874;2023-03-05T03:12:22;100147.41;;;-1.46;91.00
62942;BME280;49042;47.318;19.874;2023-03-05T03:15:23;100152.75;;;-1.43;91.10
62942;BME280;49042;47.318;19.874;2023-03-05T03:18:25;100151.94;;;-1.54;91.90
62942;BME280;49042;47.318;19.874;2023-03-05T03:21:27;100157.41;;;-1.49;92.04
62942;BME280;49042;47.318;19.874;2023-03-05T03:24:30;100152.37;;;-1.47;92.42
62942;BME280;49042;47.318;19.874;2023-03-05T03:27:32;100149.41;;;-1.42;92.71
62942;BME280;49042;47.318;19.874;2023-03-05T03:30:33;100154.88;;;-1.37;93.79
62942;BME280;49042;47.318;19.874;2023-03-05T03:33:35;100142.88;;;-1.26;93.58
62942;BME280;49042;47.318;19.874;2023-03-05T03:36:37;100137.06;;;-1.23;93.34
62942;BME280;49042;47.318;19.874;2023-03-05T03:39:39;100139.00;;;-1.21;93.69
62942;BME280;49042;47.318;19.874;2023-03-05T03:42:41;100141.78;;;-1.17;93.74
62942;BME280;49042;47.318;19.874;2023-03-05T03:45:42;100139.88;;;-1.20;94.19
62942;BME280;49042;47.318;19.874;2023-03-05T03:48:44;100138.87;;;-1.22;94.65
62942;BME280;49042;47.318;19.874;2023-03-05T03:51:50;100135.53;;;-1.21;95.01
62942;BME280;49042;47.318;19.874;2023-03-05T03:54:53;100132.97;;;-1.21;95.24
62942;BME280;49042;47.318;19.874;2023-03-05T03:57:56;100128.09;;;-1.18;95.49
62942;BME280;49042;47.318;19.874;2023-03-05T04:00:57;100128.97;;;-1.17;95.49
62942;BME280;49042;47.318;19.874;2023-03-05T04:03:59;100127.41;;;-1.15;95.49
62942;BME280;49042;47.318;19.874;2023-03-05T04:07:01;100135.09;;;-1.15;95.73
62942;BME280;49042;47.318;19.874;2023-03-05T04:10:03;100129.66;;;-1.08;95.37
62942;BME280;49042;47.318;19.874;2023-03-05T04:13:05;100127.63;;;-1.12;95.59
62942;BME280;49042;47.318;19.874;2023-03-05T04:16:07;100128.19;;;-1.16;96.26
62942;BME280;49042;47.318;19.874;2023-03-05T04:19:09;100130.50;;;-1.20;96.44
62942;BME280;49042;47.318;19.874;2023-03-05T04:22:12;100128.31;;;-1.15;95.79
62942;BME280;49042;47.318;19.874;2023-03-05T04:25:14;100127.94;;;-1.44;95.90
62942;BME280;49042;47.318;19.874;2023-03-05T04:28:16;100122.00;;;-1.55;95.58
62942;BME280;49042;47.318;19.874;2023-03-05T04:31:18;100123.66;;;-1.55;95.51
62942;BME280;49042;47.318;19.874;2023-03-05T04:34:21;100126.00;;;-1.58;95.96
62942;BME280;49042;47.318;19.874;2023-03-05T04:37:24;100123.72;;;-1.19;94.63
62942;BME280;49042;47.318;19.874;2023-03-05T04:40:25;100119.16;;;-1.35;95.38
62942;BME280;49042;47.318;19.874;2023-03-05T04:43:27;100119.84;;;-1.26;94.97
62942;BME280;49042;47.318;19.874;2023-03-05T04:46:29;100123.31;;;-1.13;94.54
62942;BME280;49042;47.318;19.874;2023-03-05T04:49:30;100121.63;;;-1.13;96.23
62942;BME280;49042;47.318;19.874;2023-03-05T04:52:32;100120.75;;;-1.13;97.81
62942;BME280;49042;47.318;19.874;2023-03-05T04:55:34;100127.53;;;-1.14;97.61
62942;BME280;49042;47.318;19.874;2023-03-05T04:58:36;100120.88;;;-1.00;97.60
62942;BME280;49042;47.318;19.874;2023-03-05T05:01:38;100119.19;;;-0.87;97.75
62942;BME280;49042;47.318;19.874;2023-03-05T05:04:40;100120.38;;;-0.70;97.75
62942;BME280;49042;47.318;19.874;2023-03-05T05:07:45;100120.59;;;-0.67;96.99
62942;BME280;49042;47.318;19.874;2023-03-05T05:11:02;100120.16;;;-0.61;96.95
62942;BME280;49042;47.318;19.874;2023-03-05T05:14:03;100122.69;;;-0.49;97.26
62942;BME280;49042;47.318;19.874;2023-03-05T05:17:05;100122.34;;;-0.29;97.40
62942;BME280;49042;47.318;19.874;2023-03-05T05:20:09;100125.72;;;-0.17;97.66
62942;BME280;49042;47.318;19.874;2023-03-05T05:23:11;100131.25;;;0.02;97.41
62942;BME280;49042;47.318;19.874;2023-03-05T05:26:13;100123.53;;;0.14;97.28
62942;BME280;49042;47.318;19.874;2023-03-05T05:29:15;100127.31;;;0.32;96.99
62942;BME280;49042;47.318;19.874;2023-03-05T05:32:19;100124.56;;;0.43;96.22
62942;BME280;49042;47.318;19.874;2023-03-05T05:35:22;100126.09;;;0.53;96.36
62942;BME280;49042;47.318;19.874;2023-03-05T05:38:24;100132.81;;;0.64;95.10
62942;BME280;49042;47.318;19.874;2023-03-05T05:41:26;100132.66;;;0.75;94.36
62942;BME280;49042;47.318;19.874;2023-03-05T05:44:28;100137.50;;;0.84;93.89
62942;BME280;49042;47.318;19.874;2023-03-05T05:47:29;100139.69;;;0.91;93.18
62942;BME280;49042;47.318;19.874;2023-03-05T05:50:31;100140.66;;;0.93;93.21
62942;BME280;49042;47.318;19.874;2023-03-05T05:53:33;100138.50;;;1.00;92.74
62942;BME280;49042;47.318;19.874;2023-03-05T05:56:34;100150.88;;;1.05;92.32
62942;BME280;49042;47.318;19.874;2023-03-05T05:59:37;100145.72;;;1.05;92.56
62942;BME280;49042;47.318;19.874;2023-03-05T06:02:40;100155.31;;;1.08;92.29
62942;BME280;49042;47.318;19.874;2023-03-05T06:05:42;100155.50;;;1.11;92.36
62942;BME280;49042;47.318;19.874;2023-03-05T06:08:44;100160.44;;;1.22;91.66
62942;BME280;49042;47.318;19.874;2023-03-05T06:11:46;100155.41;;;1.23;90.87
62942;BME280;49042;47.318;19.874;2023-03-05T06:14:48;100154.72;;;1.26;91.29
62942;BME280;49042;47.318;19.874;2023-03-05T06:17:50;100164.00;;;1.24;91.02
62942;BME280;49042;47.318;19.874;2023-03-05T06:20:58;100165.31;;;1.31;90.69
62942;BME280;49042;47.318;19.874;2023-03-05T06:23:59;100157.78;;;1.34;90.10
62942;BME280;49042;47.318;19.874;2023-03-05T06:27:02;100165.19;;;1.43;89.45
62942;BME280;49042;47.318;19.874;2023-03-05T06:30:05;100162.72;;;1.44;89.72
62942;BME280;49042;47.318;19.874;2023-03-05T06:33:07;100155.28;;;1.49;89.08
62942;BME280;49042;47.318;19.874;2023-03-05T06:36:14;100162.41;;;1.53;88.77
62942;BME280;49042;47.318;19.874;2023-03-05T06:39:17;100164.56;;;1.60;88.82
62942;BME280;49042;47.318;19.874;2023-03-05T06:42:20;100164.28;;;1.69;88.20
62942;BME280;49042;47.318;19.874;2023-03-05T06:45:21;100169.88;;;1.77;87.55
62942;BME280;49042;47.318;19.874;2023-03-05T06:48:23;100166.50;;;1.78;87.35
62942;BME280;49042;47.318;19.874;2023-03-05T06:51:31;100162.34;;;1.80;86.66
62942;BME280;49042;47.318;19.874;2023-03-05T06:54:33;100157.50;;;1.85;86.53
62942;BME280;49042;47.318;19.874;2023-03-05T06:57:37;100154.12;;;1.86;87.09
62942;BME280;49042;47.318;19.874;2023-03-05T07:00:39;100156.19;;;1.92;86.19
62942;BME280;49042;47.318;19.874;2023-03-05T07:03:42;100155.19;;;2.03;85.79
62942;BME280;49042;47.318;19.874;2023-03-05T07:06:44;100162.91;;;2.03;85.74
62942;BME280;49042;47.318;19.874;2023-03-05T07:09:46;100150.31;;;2.08;85.13
62942;BME280;49042;47.318;19.874;2023-03-05T07:12:50;100160.28;;;2.17;85.68
62942;BME280;49042;47.318;19.874;2023-03-05T07:15:52;100155.41;;;2.22;84.84
62942;BME280;49042;47.318;19.874;2023-03-05T07:18:57;100160.22;;;2.31;84.15
62942;BME280;49042;47.318;19.874;2023-03-05T07:21:58;100165.75;;;2.52;83.10
62942;BME280;49042;47.318;19.874;2023-03-05T07:25:00;100163.03;;;2.64;82.67
62942;BME280;49042;47.318;19.874;2023-03-05T07:28:03;100156.44;;;2.70;81.71
62942;BME280;49042;47.318;19.874;2023-03-05T07:31:15;100160.88;;;2.72;80.99
62942;BME280;49042;47.318;19.874;2023-03-05T07:34:18;100164.09;;;2.83;80.93
62942;BME280;49042;47.318;19.874;2023-03-05T07:37:20;100167.09;;;2.91;79.75
62942;BME280;49042;47.318;19.874;2023-03-05T07:40:22;100163.19;;;2.98;79.72
62942;BME280;49042;47.318;19.874;2023-03-05T07:43:23;100153.22;;;3.04;78.94
62942;BME280;49042;47.318;19.874;2023-03-05T07:46:28;100157.50;;;3.19;78.44
62942;BME280;49042;47.318;19.874;2023-03-05T07:49:30;100158.81;;;3.42;77.95
62942;BME280;49042;47.318;19.874;2023-03-05T07:52:32;100151.09;;;3.59;75.51
62942;BME280;49042;47.318;19.874;2023-03-05T07:55:34;100157.59;;;3.84;73.92
62942;BME280;49042;47.318;19.874;2023-03-05T07:58:36;100152.66;;;3.89;73.13
62942;BME280;49042;47.318;19.874;2023-03-05T08:01:38;100141.47;;;4.05;72.95
62942;BME280;49042;47.318;19.874;2023-03-05T08:04:40;100156.72;;;4.01;71.49
62942;BME280;49042;47.318;19.874;2023-03-05T08:07:43;100148.22;;;4.03;71.87
62942;BME280;49042;47.318;19.874;2023-03-05T08:10:45;100152.50;;;4.53;70.20
62942;BME280;49042;47.318;19.874;2023-03-05T08:13:47;100149.75;;;4.50;68.91
62942;BME280;49042;47.318;19.874;2023-03-05T08:16:48;100146.38;;;4.51;69.36
62942;BME280;49042;47.318;19.874;2023-03-05T08:19:52;100152.59;;;4.38;68.87
62942;BME280;49042;47.318;19.874;2023-03-05T08:22:58;100153.16;;;5.02;66.35
62942;BME280;49042;47.318;19.874;2023-03-05T08:25:59;100151.47;;;5.96;64.30
62942;BME280;49042;47.318;19.874;2023-03-05T08:29:01;100152.41;;;5.78;69.61
62942;BME280;49042;47.318;19.874;2023-03-05T08:32:04;100150.59;;;6.16;62.96
62942;BME280;49042;47.318;19.874;2023-03-05T08:35:06;100151.03;;;5.30;64.54
62942;BME280;49042;47.318;19.874;2023-03-05T08:38:08;100147.72;;;5.14;66.54
62942;BME280;49042;47.318;19.874;2023-03-05T08:41:10;100145.72;;;4.90;66.94
62942;BME280;49042;47.318;19.874;2023-03-05T08:44:11;100153.03;;;4.64;66.57
62942;BME280;49042;47.318;19.874;2023-03-05T08:47:13;100148.16;;;4.87;66.81
62942;BME280;49042;47.318;19.874;2023-03-05T08:50:15;100140.66;;;4.75;66.11
62942;BME280;49042;47.318;19.874;2023-03-05T08:53:18;100140.28;;;4.67;66.81
62942;BME280;49042;47.318;19.874;2023-03-05T08:56:20;100144.63;;;4.68;67.24
62942;BME280;49042;47.318;19.874;2023-03-05T08:59:21;100143.13;;;4.55;67.29
62942;BME280;49042;47.318;19.874;2023-03-05T09:02:23;100149.50;;;4.45;67.51
62942;BME280;49042;47.318;19.874;2023-03-05T09:05:25;100148.22;;;4.54;68.44
62942;BME280;49042;47.318;19.874;2023-03-05T09:08:27;100150.78;;;4.54;67.88
62942;BME280;49042;47.318;19.874;2023-03-05T09:11:29;100152.03;;;4.44;68.54
62942;BME280;49042;47.318;19.874;2023-03-05T09:14:31;100143.06;;;4.37;67.77
62942;BME280;49042;47.318;19.874;2023-03-05T09:17:36;100149.37;;;4.25;68.85
62942;BME280;49042;47.318;19.874;2023-03-05T09:20:39;100149.31;;;4.24;70.43
62942;BME280;49042;47.318;19.874;2023-03-05T09:23:41;100144.59;;;4.50;70.37
62942;BME280;49042;47.318;19.874;2023-03-05T09:26:43;100152.09;;;4.28;69.40
62942;BME280;49042;47.318;19.874;2023-03-05T09:29:45;100156.22;;;4.08;69.24
62942;BME280;49042;47.318;19.874;2023-03-05T09:32:47;100150.09;;;4.23;69.54
62942;BME280;49042;47.318;19.874;2023-03-05T09:35:48;100144.47;;;4.30;68.93
62942;BME280;49042;47.318;19.874;2023-03-05T09:38:51;100137.81;;;4.35;68.09
62942;BME280;49042;47.318;19.874;2023-03-05T09:45:26;100139.91;;;4.43;67.85
62942;BME280;49042;47.318;19.874;2023-03-05T09:48:45;100140.66;;;4.40;68.41
62942;BME280;49042;47.318;19.874;2023-03-05T09:51:51;100135.72;;;4.45;68.60
62942;BME280;49042;47.318;19.874;2023-03-05T09:54:55;100129.84;;;4.31;68.54
62942;BME280;49042;47.318;19.874;2023-03-05T09:58:04;100130.22;;;4.38;69.19
62942;BME280;49042;47.318;19.874;2023-03-05T10:01:12;100122.31;;;4.52;68.52
62942;BME280;49042;47.318;19.874;2023-03-05T10:04:24;100124.50;;;4.44;67.84
62942;BME280;49042;47.318;19.874;2023-03-05T10:07:32;100133.62;;;4.37;67.52
62942;BME280;49042;47.318;19.874;2023-03-05T10:10:43;100139.41;;;4.50;67.94
62942;BME280;49042;47.318;19.874;2023-03-05T10:13:47;100120.16;;;4.43;67.19
62942;BME280;49042;47.318;19.874;2023-03-05T10:29:51;100094.63;;;4.49;67.26
62942;BME280;49042;47.318;19.874;2023-03-05T10:43:39;100094.13;;;4.57;66.05
62942;BME280;49042;47.318;19.874;2023-03-05T10:46:46;100092.66;;;4.62;65.01
62942;BME280;49042;47.318;19.874;2023-03-05T10:49:52;100089.38;;;4.83;64.25
62942;BME280;49042;47.318;19.874;2023-03-05T10:56:10;100089.44;;;4.66;64.27
62942;BME280;49042;47.318;19.874;2023-03-05T10:59:12;100089.09;;;4.60;65.13
62942;BME280;49042;47.318;19.874;2023-03-05T11:02:14;100079.75;;;4.62;64.55
62942;BME280;49042;47.318;19.874;2023-03-05T11:06:18;100071.25;;;4.65;64.98
62942;BME280;49042;47.318;19.874;2023-03-05T11:12:25;100065.62;;;4.74;64.57
62942;BME280;49042;47.318;19.874;2023-03-05T11:15:28;100066.09;;;4.83;64.71
62942;BME280;49042;47.318;19.874;2023-03-05T11:18:32;100058.03;;;4.95;63.18
62942;BME280;49042;47.318;19.874;2023-03-05T11:21:37;100062.12;;;5.08;63.11
62942;BME280;49042;47.318;19.874;2023-03-05T11:24:39;100054.66;;;5.14;61.75
62942;BME280;49042;47.318;19.874;2023-03-05T11:27:49;100039.91;;;5.32;61.54
62942;BME280;49042;47.318;19.874;2023-03-05T11:34:08;100036.22;;;5.27;60.76
62942;BME280;49042;47.318;19.874;2023-03-05T11:37:27;100032.56;;;5.41;60.35
62942;BME280;49042;47.318;19.874;2023-03-05T11:40:30;100020.44;;;5.80;59.79
62942;BME280;49042;47.318;19.874;2023-03-05T11:43:33;100022.66;;;5.71;58.89
62942;BME280;49042;47.318;19.874;2023-03-05T11:46:51;100020.59;;;5.63;60.08
62942;BME280;49042;47.318;19.874;2023-03-05T11:50:04;100021.53;;;5.45;60.16
62942;BME280;49042;47.318;19.874;2023-03-05T11:53:29;100008.47;;;5.42;60.55
62942;BME280;49042;47.318;19.874;2023-03-05T11:56:35;100012.56;;;5.37;61.37
62942;BME280;49042;47.318;19.874;2023-03-05T11:59:38;100006.66;;;5.60;61.39
62942;BME280;49042;47.318;19.874;2023-03-05T12:02:40;100005.75;;;5.59;60.83
62942;BME280;49042;47.318;19.874;2023-03-05T12:05:47;99999.56;;;5.75;60.47
62942;BME280;49042;47.318;19.874;2023-03-05T12:08:55;100000.03;;;5.86;59.21
62942;BME280;49042;47.318;19.874;2023-03-05T12:12:17;99990.56;;;5.67;59.23
62942;BME280;49042;47.318;19.874;2023-03-05T12:18:59;100005.75;;;5.59;58.31
62942;BME280;49042;47.318;19.874;2023-03-05T12:22:04;99998.06;;;5.61;59.23
62942;BME280;49042;47.318;19.874;2023-03-05T12:31:38;99975.47;;;5.56;56.14
62942;BME280;49042;47.318;19.874;2023-03-05T12:40:52;99971.06;;;5.95;55.17
62942;BME280;49042;47.318;19.874;2023-03-05T12:53:30;99969.31;;;5.74;53.54
62942;BME280;49042;47.318;19.874;2023-03-05T12:56:33;99974.06;;;5.85;53.00
62942;BME280;49042;47.318;19.874;2023-03-05T12:59:47;99971.44;;;5.63;53.09
62942;BME280;49042;47.318;19.874;2023-03-05T13:02:54;99961.03;;;5.62;53.53
62942;BME280;49042;47.318;19.874;2023-03-05T13:05:59;99958.31;;;5.39;52.91
62942;BME280;49042;47.318;19.874;2023-03-05T13:09:24;99960.84;;;5.57;53.35
62942;BME280;49042;47.318;19.874;2023-03-05T13:12:29;99958.72;;;5.48;52.51
62942;BME280;49042;47.318;19.874;2023-03-05T13:15:32;99955.06;;;5.43;52.74
62942;BME280;49042;47.318;19.874;2023-03-05T13:18:38;99950.34;;;5.54;53.17
62942;BME280;49042;47.318;19.874;2023-03-05T13:21:42;99957.19;;;5.73;52.86
62942;BME280;49042;47.318;19.874;2023-03-05T13:24:47;99957.16;;;5.72;53.29
62942;BME280;49042;47.318;19.874;2023-03-05T13:27:49;99947.84;;;5.77;53.62
62942;BME280;49042;47.318;19.874;2023-03-05T13:30:56;99950.44;;;5.77;53.89
62942;BME280;49042;47.318;19.874;2023-03-05T13:34:22;99947.53;;;5.69;53.78
62942;BME280;49042;47.318;19.874;2023-03-05T13:37:33;99941.56;;;5.50;53.53
62942;BME280;49042;47.318;19.874;2023-03-05T13:40:38;99938.28;;;5.74;53.37
62942;BME280;49042;47.318;19.874;2023-03-05T13:43:51;99939.41;;;5.81;52.53
62942;BME280;49042;47.318;19.874;2023-03-05T13:47:08;99938.50;;;6.00;51.34
62942;BME280;49042;47.318;19.874;2023-03-05T13:50:22;99937.94;;;6.29;50.34
62942;BME280;49042;47.318;19.874;2023-03-05T13:53:30;99932.66;;;7.94;47.23
62942;BME280;49042;47.318;19.874;2023-03-05T13:56:32;99916.63;;;9.24;42.04
62942;BME280;49042;47.318;19.874;2023-03-05T13:59:36;99918.88;;;8.52;42.43
62942;BME280;49042;47.318;19.874;2023-03-05T14:02:42;99929.62;;;6.83;46.48
62942;BME280;49042;47.318;19.874;2023-03-05T14:05:45;99926.72;;;6.29;48.11
62942;BME280;49042;47.318;19.874;2023-03-05T14:08:54;99919.41;;;5.77;48.74
62942;BME280;49042;47.318;19.874;2023-03-05T14:12:04;99924.94;;;5.65;49.31
62942;BME280;49042;47.318;19.874;2023-03-05T14:15:32;99919.44;;;5.57;50.92
62942;BME280;49042;47.318;19.874;2023-03-05T14:18:37;99913.94;;;5.49;51.33
62942;BME280;49042;47.318;19.874;2023-03-05T14:21:48;99914.75;;;5.28;50.96
62942;BME280;49042;47.318;19.874;2023-03-05T14:24:52;99900.13;;;5.29;51.21
62942;BME280;49042;47.318;19.874;2023-03-05T14:27:55;99903.00;;;5.15;51.48
62942;BME280;49042;47.318;19.874;2023-03-05T14:30:58;99912.06;;;5.05;51.46
62942;BME280;49042;47.318;19.874;2023-03-05T14:34:04;99901.63;;;5.03;51.75
62942;BME280;49042;47.318;19.874;2023-03-05T14:37:37;99911.06;;;5.03;52.15
62942;BME280;49042;47.318;19.874;2023-03-05T14:40:40;99908.97;;;4.94;52.77
62942;BME280;49042;47.318;19.874;2023-03-05T14:43:43;99903.03;;;4.77;53.64
62942;BME280;49042;47.318;19.874;2023-03-05T14:46:49;99901.94;;;4.71;54.39
62942;BME280;49042;47.318;19.874;2023-03-05T14:49:53;99904.28;;;4.67;54.61
62942;BME280;49042;47.318;19.874;2023-03-05T14:52:58;99907.13;;;4.53;54.51
62942;BME280;49042;47.318;19.874;2023-03-05T14:56:01;99903.59;;;4.51;54.91
62942;BME280;49042;47.318;19.874;2023-03-05T14:59:04;99903.63;;;4.53;53.58
62942;BME280;49042;47.318;19.874;2023-03-05T15:02:14;99896.72;;;4.52;53.44
62942;BME280;49042;47.318;19.874;2023-03-05T15:05:17;99891.47;;;4.50;53.46
62942;BME280;49042;47.318;19.874;2023-03-05T15:08:23;99905.19;;;4.49;53.53
62942;BME280;49042;47.318;19.874;2023-03-05T15:11:26;99895.09;;;4.54;53.05
62942;BME280;49042;47.318;19.874;2023-03-05T15:14:31;99906.03;;;4.48;52.78
62942;BME280;49042;47.318;19.874;2023-03-05T15:17:36;99903.34;;;4.46;52.33
62942;BME280;49042;47.318;19.874;2023-03-05T15:20:39;99893.63;;;4.41;52.46
62942;BME280;49042;47.318;19.874;2023-03-05T15:23:42;99907.44;;;4.41;52.76
62942;BME280;49042;47.318;19.874;2023-03-05T15:26:46;99899.47;;;4.36;52.40
62942;BME280;49042;47.318;19.874;2023-03-05T15:29:50;99904.34;;;4.30;52.36
62942;BME280;49042;47.318;19.874;2023-03-05T15:32:55;99908.38;;;4.25;52.39
62942;BME280;49042;47.318;19.874;2023-03-05T15:35:58;99906.62;;;4.24;51.90
62942;BME280;49042;47.318;19.874;2023-03-05T15:39:00;99908.31;;;4.23;52.77
62942;BME280;49042;47.318;19.874;2023-03-05T15:42:03;99913.41;;;4.22;52.30
62942;BME280;49042;47.318;19.874;2023-03-05T15:45:07;99906.16;;;4.14;52.56
62942;BME280;49042;47.318;19.874;2023-03-05T15:48:10;99875.72;;;4.25;52.19
62942;BME280;49042;47.318;19.874;2023-03-05T15:51:16;99879.56;;;4.15;52.54
62942;BME280;49042;47.318;19.874;2023-03-05T15:54:18;99883.91;;;4.16;52.95
62942;BME280;49042;47.318;19.874;2023-03-05T15:57:21;99880.81;;;4.05;53.36
62942;BME280;49042;47.318;19.874;2023-03-05T16:00:30;99880.16;;;4.10;53.44
62942;BME280;49042;47.318;19.874;2023-03-05T16:03:32;99888.25;;;3.99;53.76
62942;BME280;49042;47.318;19.874;2023-03-05T16:06:35;99891.41;;;3.93;54.11
62942;BME280;49042;47.318;19.874;2023-03-05T16:09:41;99897.31;;;3.91;54.83
62942;BME280;49042;47.318;19.874;2023-03-05T16:12:47;99904.09;;;3.89;54.55
62942;BME280;49042;47.318;19.874;2023-03-05T16:15:51;99904.59;;;3.81;54.45
62942;BME280;49042;47.318;19.874;2023-03-05T16:18:57;99910.47;;;3.79;54.63
62942;BME280;49042;47.318;19.874;2023-03-05T16:22:04;99907.09;;;3.80;54.87
62942;BME280;49042;47.318;19.874;2023-03-05T16:25:08;99905.41;;;3.80;55.18
62942;BME280;49042;47.318;19.874;2023-03-05T16:28:11;99907.09;;;3.80;55.08
62942;BME280;49042;47.318;19.874;2023-03-05T16:31:13;99910.03;;;3.69;55.75
62942;BME280;49042;47.318;19.874;2023-03-05T16:34:16;99914.12;;;3.66;55.07
62942;BME280;49042;47.318;19.874;2023-03-05T16:37:21;99909.31;;;3.55;55.75
62942;BME280;49042;47.318;19.874;2023-03-05T16:40:25;99909.06;;;3.50;56.28
62942;BME280;49042;47.318;19.874;2023-03-05T16:43:48;99912.31;;;3.46;56.79
62942;BME280;49042;47.318;19.874;2023-03-05T16:46:51;99917.84;;;3.54;56.35
62942;BME280;49042;47.318;19.874;2023-03-05T16:49:54;99917.69;;;3.51;56.40
62942;BME280;49042;47.318;19.874;2023-03-05T16:52:57;99923.50;;;3.47;57.03
62942;BME280;49042;47.318;19.874;2023-03-05T16:56:04;99926.66;;;3.41;57.58
62942;BME280;49042;47.318;19.874;2023-03-05T16:59:08;99916.66;;;3.30;58.38
62942;BME280;49042;47.318;19.874;2023-03-05T17:02:11;99922.63;;;3.13;59.37
62942;BME280;49042;47.318;19.874;2023-03-05T17:05:16;99926.47;;;3.04;60.03
62942;BME280;49042;47.318;19.874;2023-03-05T17:08:19;99937.50;;;3.02;60.82
62942;BME280;49042;47.318;19.874;2023-03-05T17:11:23;99938.50;;;3.04;59.89